sensor_id;sensor_type;location;lat;lon;timestamp;pressure;altitude;pressure_sealevel;temperature;humidity
10510;BME280;5303;53.266;10.410;2023-06-26T00:00:45;101179.28;;;20.55;77.57
10510;BME280;5303;53.266;10.410;2023-06-26T00:03:12;101182.88;;;20.54;78.00
10510;BME280;5303;53.266;10.410;2023-06-26T00:05:40;101174.94;;;20.51;78.30
10510;BME280;5303;53.266;10.410;2023-06-26T00:08:06;101162.59;;;20.47;78.16
10510;BME280;5303;53.266;10.410;2023-06-26T00:10:31;101168.91;;;20.46;78.43
10510;BME280;5303;53.266;10.410;2023-06-26T00:12:57;101161.84;;;20.42;78.03
10510;BME280;5303;53.266;10.410;2023-06-26T00:15:22;101165.47;;;20.41;77.82
10510;BME280;5303;53.266;10.410;2023-06-26T00:17:47;101161.97;;;20.39;77.64
10510;BME280;5303;53.266;10.410;2023-06-26T00:20:13;101161.13;;;20.38;78.08
10510;BME280;5303;53.266;10.410;2023-06-26T00:22:41;101158.50;;;20.37;78.16
10510;BME280;5303;53.266;10.410;2023-06-26T00:25:07;101158.50;;;20.37;78.77
10510;BME280;5303;53.266;10.410;2023-06-26T00:27:33;101147.91;;;20.34;78.65
10510;BME280;5303;53.266;10.410;2023-06-26T00:29:58;101151.50;;;20.33;78.73
10510;BME280;5303;53.266;10.410;2023-06-26T00:32:23;101151.63;;;20.30;78.69
10510;BME280;5303;53.266;10.410;2023-06-26T00:34:49;101150.81;;;20.28;79.02
10510;BME280;5303;53.266;10.410;2023-06-26T00:37:14;101152.72;;;20.24;79.06
10510;BME280;5303;53.266;10.410;2023-06-26T00:39:39;101155.44;;;20.23;78.93
10510;BME280;5303;53.266;10.410;2023-06-26T00:42:06;101151.97;;;20.21;79.12
10510;BME280;5303;53.266;10.410;2023-06-26T00:44:31;101152.09;;;20.18;78.81
10510;BME280;5303;53.266;10.410;2023-06-26T00:46:56;101153.00;;;20.17;78.87
10510;BME280;5303;53.266;10.410;2023-06-26T00:49:22;101155.69;;;20.17;79.11
10510;BME280;5303;53.266;10.410;2023-06-26T00:51:48;101153.13;;;20.13;79.40
10510;BME280;5303;53.266;10.410;2023-06-26T00:54:13;101147.81;;;20.12;79.47
10510;BME280;5303;53.266;10.410;2023-06-26T00:56:45;101145.31;;;20.07;79.67
10510;BME280;5303;53.266;10.410;2023-06-26T00:59:10;101141.84;;;20.05;80.25
10510;BME280;5303;53.266;10.410;2023-06-26T01:01:36;101141.03;;;20.02;80.42
10510;BME280;5303;53.266;10.410;2023-06-26T01:04:01;101134.81;;;20.01;80.43
10510;BME280;5303;53.266;10.410;2023-06-26T01:06:28;101127.78;;;19.99;80.32
10510;BME280;5303;53.266;10.410;2023-06-26T01:08:58;101125.97;;;19.99;80.14
10510;BME280;5303;53.266;10.410;2023-06-26T01:11:24;101132.13;;;20.01;80.03
10510;BME280;5303;53.266;10.410;2023-06-26T01:13:50;101130.34;;;20.02;79.44
10510;BME280;5303;53.266;10.410;2023-06-26T01:16:16;101128.59;;;20.01;79.39
10510;BME280;5303;53.266;10.410;2023-06-26T01:18:44;101121.63;;;19.97;79.32
10510;BME280;5303;53.266;10.410;2023-06-26T01:21:11;101119.09;;;19.92;79.30
10510;BME280;5303;53.266;10.410;2023-06-26T01:23:52;101121.88;;;19.89;79.28
10510;BME280;5303;53.266;10.410;2023-06-26T01:26:23;101118.41;;;19.87;79.68
10510;BME280;5303;53.266;10.410;2023-06-26T01:28:52;101116.72;;;19.84;79.91
10510;BME280;5303;53.266;10.410;2023-06-26T01:31:19;101114.13;;;19.81;80.40
10510;BME280;5303;53.266;10.410;2023-06-26T01:33:45;101111.56;;;19.78;80.71
10510;BME280;5303;53.266;10.410;2023-06-26T01:36:11;101107.16;;;19.77;80.62
10510;BME280;5303;53.266;10.410;2023-06-26T01:38:37;101103.59;;;19.77;80.82
10510;BME280;5303;53.266;10.410;2023-06-26T01:41:03;101098.31;;;19.75;80.83
10510;BME280;5303;53.266;10.410;2023-06-26T01:46:11;101102.84;;;19.73;80.91
10510;BME280;5303;53.266;10.410;2023-06-26T01:49:04;101091.28;;;19.73;81.03
10510;BME280;5303;53.266;10.410;2023-06-26T01:51:35;101095.75;;;19.72;81.20
10510;BME280;5303;53.266;10.410;2023-06-26T01:54:06;101093.09;;;19.71;80.67
10510;BME280;5303;53.266;10.410;2023-06-26T01:56:35;101096.72;;;19.70;80.86
10510;BME280;5303;53.266;10.410;2023-06-26T01:59:04;101093.22;;;19.68;80.96
10510;BME280;5303;53.266;10.410;2023-06-26T02:01:31;101087.00;;;19.67;80.86
10510;BME280;5303;53.266;10.410;2023-06-26T02:03:58;101087.06;;;19.66;80.88
10510;BME280;5303;53.266;10.410;2023-06-26T02:06:23;101092.47;;;19.64;81.01
10510;BME280;5303;53.266;10.410;2023-06-26T02:08:49;101080.91;;;19.64;81.42
10510;BME280;5303;53.266;10.410;2023-06-26T02:11:14;101079.16;;;19.63;81.40
10510;BME280;5303;53.266;10.410;2023-06-26T02:13:39;101078.38;;;19.59;81.07
10510;BME280;5303;53.266;10.410;2023-06-26T02:16:04;101072.19;;;19.57;80.89
10510;BME280;5303;53.266;10.410;2023-06-26T02:18:30;101070.47;;;19.54;80.32
10510;BME280;5303;53.266;10.410;2023-06-26T02:20:55;101062.44;;;19.54;80.55
10510;BME280;5303;53.266;10.410;2023-06-26T02:23:20;101065.19;;;19.53;80.65
10510;BME280;5303;53.266;10.410;2023-06-26T02:25:46;101061.72;;;19.49;80.69
10510;BME280;5303;53.266;10.410;2023-06-26T02:28:11;101061.91;;;19.45;80.89
10510;BME280;5303;53.266;10.410;2023-06-26T02:30:36;101056.63;;;19.43;80.83
10510;BME280;5303;53.266;10.410;2023-06-26T02:33:01;101056.63;;;19.43;81.01
10510;BME280;5303;53.266;10.410;2023-06-26T02:35:27;101059.28;;;19.43;80.84
10510;BME280;5303;53.266;10.410;2023-06-26T02:37:52;101057.50;;;19.44;80.96
10510;BME280;5303;53.266;10.410;2023-06-26T02:40:17;101058.38;;;19.44;80.90
10510;BME280;5303;53.266;10.410;2023-06-26T02:42:42;101059.13;;;19.48;81.24
10510;BME280;5303;53.266;10.410;2023-06-26T02:45:08;101060.84;;;19.49;80.73
10510;BME280;5303;53.266;10.410;2023-06-26T02:47:34;101059.91;;;19.51;80.39
10510;BME280;5303;53.266;10.410;2023-06-26T02:49:59;101049.03;;;19.56;79.57
10510;BME280;5303;53.266;10.410;2023-06-26T02:52:24;101045.50;;;19.55;79.78
10510;BME280;5303;53.266;10.410;2023-06-26T02:54:50;101045.50;;;19.55;79.95
10510;BME280;5303;53.266;10.410;2023-06-26T02:57:15;101050.72;;;19.59;79.91
10510;BME280;5303;53.266;10.410;2023-06-26T02:59:42;101043.69;;;19.56;79.73
10510;BME280;5303;53.266;10.410;2023-06-26T03:02:07;101039.25;;;19.55;79.96
10510;BME280;5303;53.266;10.410;2023-06-26T03:04:32;101047.34;;;19.53;80.13
10510;BME280;5303;53.266;10.410;2023-06-26T03:07:01;101037.66;;;19.49;80.31
10510;BME280;5303;53.266;10.410;2023-06-26T03:09:27;101035.81;;;19.51;79.87
10510;BME280;5303;53.266;10.410;2023-06-26T03:11:52;101034.97;;;19.49;79.94
10510;BME280;5303;53.266;10.410;2023-06-26T03:14:18;101037.72;;;19.48;80.35
10510;BME280;5303;53.266;10.410;2023-06-26T03:16:43;101042.19;;;19.47;80.83
10510;BME280;5303;53.266;10.410;2023-06-26T03:19:09;101044.88;;;19.47;80.53
10510;BME280;5303;53.266;10.410;2023-06-26T03:21:34;101037.72;;;19.48;80.69
10510;BME280;5303;53.266;10.410;2023-06-26T03:23:59;101035.84;;;19.50;80.05
10510;BME280;5303;53.266;10.410;2023-06-26T03:26:25;101027.88;;;19.48;80.26
10510;BME280;5303;53.266;10.410;2023-06-26T03:28:53;101029.56;;;19.51;80.15
10510;BME280;5303;53.266;10.410;2023-06-26T03:31:18;101024.13;;;19.54;79.62
10510;BME280;5303;53.266;10.410;2023-06-26T03:33:44;101022.22;;;19.58;79.62
10510;BME280;5303;53.266;10.410;2023-06-26T03:36:09;101023.97;;;19.59;79.44
10510;BME280;5303;53.266;10.410;2023-06-26T03:38:34;101022.22;;;19.58;79.67
10510;BME280;5303;53.266;10.410;2023-06-26T03:40:59;101019.50;;;19.59;79.68
10510;BME280;5303;53.266;10.410;2023-06-26T03:43:25;101016.75;;;19.61;79.58
10510;BME280;5303;53.266;10.410;2023-06-26T03:45:50;101011.88;;;19.72;78.84
10510;BME280;5303;53.266;10.410;2023-06-26T03:48:15;101010.97;;;19.73;78.62
10510;BME280;5303;53.266;10.410;2023-06-26T03:50:40;101009.09;;;19.75;78.66
10510;BME280;5303;53.266;10.410;2023-06-26T03:53:06;101012.59;;;19.77;78.38
10510;BME280;5303;53.266;10.410;2023-06-26T03:55:31;101007.88;;;19.83;77.83
10510;BME280;5303;53.266;10.410;2023-06-26T03:57:56;101009.44;;;19.89;77.50
10510;BME280;5303;53.266;10.410;2023-06-26T04:00:22;101013.84;;;19.90;77.95
10510;BME280;5303;53.266;10.410;2023-06-26T04:02:47;101011.63;;;20.01;76.85
10510;BME280;5303;53.266;10.410;2023-06-26T04:05:12;101010.22;;;20.14;76.96
10510;BME280;5303;53.266;10.410;2023-06-26T04:07:38;101003.56;;;20.25;76.63
10510;BME280;5303;53.266;10.410;2023-06-26T04:10:03;101003.88;;;20.39;76.07
10510;BME280;5303;53.266;10.410;2023-06-26T04:12:28;101002.47;;;20.52;76.22
10510;BME280;5303;53.266;10.410;2023-06-26T04:14:54;100992.06;;;20.66;74.79
10510;BME280;5303;53.266;10.410;2023-06-26T04:17:19;100997.69;;;20.81;74.66
10510;BME280;5303;53.266;10.410;2023-06-26T04:19:45;100999.00;;;21.13;72.22
10510;BME280;5303;53.266;10.410;2023-06-26T04:22:11;100990.63;;;21.20;71.22
10510;BME280;5303;53.266;10.410;2023-06-26T04:24:36;100982.72;;;21.38;72.08
10510;BME280;5303;53.266;10.410;2023-06-26T04:27:01;100986.66;;;21.49;71.06
10510;BME280;5303;53.266;10.410;2023-06-26T04:29:27;100980.72;;;21.62;72.29
10510;BME280;5303;53.266;10.410;2023-06-26T04:31:53;100984.06;;;21.85;68.56
10510;BME280;5303;53.266;10.410;2023-06-26T04:34:27;100985.81;;;22.05;67.31
10510;BME280;5303;53.266;10.410;2023-06-26T04:36:53;100979.94;;;22.35;65.25
10510;BME280;5303;53.266;10.410;2023-06-26T04:39:19;100974.06;;;22.80;63.61
10510;BME280;5303;53.266;10.410;2023-06-26T04:41:45;100973.03;;;23.17;61.38
10510;BME280;5303;53.266;10.410;2023-06-26T04:44:10;100963.00;;;23.54;59.70
10510;BME280;5303;53.266;10.410;2023-06-26T04:46:37;100964.91;;;23.85;60.27
10510;BME280;5303;53.266;10.410;2023-06-26T04:49:08;100967.00;;;24.11;58.08
10510;BME280;5303;53.266;10.410;2023-06-26T04:51:34;100963.50;;;24.09;57.70
10510;BME280;5303;53.266;10.410;2023-06-26T04:54:08;100967.78;;;23.82;59.12
10510;BME280;5303;53.266;10.410;2023-06-26T04:56:34;100963.00;;;23.71;59.54
10510;BME280;5303;53.266;10.410;2023-06-26T04:59:00;100957.78;;;23.84;59.72
10510;BME280;5303;53.266;10.410;2023-06-26T05:01:25;100948.63;;;24.18;59.70
10510;BME280;5303;53.266;10.410;2023-06-26T05:03:54;100945.28;;;24.60;57.45
10510;BME280;5303;53.266;10.410;2023-06-26T05:06:20;100937.75;;;25.40;55.07
10510;BME280;5303;53.266;10.410;2023-06-26T05:08:45;100942.28;;;26.37;51.38
10510;BME280;5303;53.266;10.410;2023-06-26T05:11:10;100934.22;;;27.15;49.60
10510;BME280;5303;53.266;10.410;2023-06-26T05:13:35;100941.00;;;27.84;47.23
10510;BME280;5303;53.266;10.410;2023-06-26T05:16:01;100934.47;;;28.24;45.57
10510;BME280;5303;53.266;10.410;2023-06-26T05:18:26;100934.09;;;29.11;42.91
10510;BME280;5303;53.266;10.410;2023-06-26T05:20:51;100928.78;;;29.21;42.56
10510;BME280;5303;53.266;10.410;2023-06-26T05:23:17;100929.59;;;30.33;39.18
10510;BME280;5303;53.266;10.410;2023-06-26T05:25:42;100916.63;;;31.11;38.35
10510;BME280;5303;53.266;10.410;2023-06-26T05:28:08;100926.09;;;30.95;37.95
10510;BME280;5303;53.266;10.410;2023-06-26T05:30:36;100920.19;;;31.93;36.22
10510;BME280;5303;53.266;10.410;2023-06-26T05:33:02;100913.16;;;31.09;38.28
10510;BME280;5303;53.266;10.410;2023-06-26T05:35:30;100918.66;;;31.70;36.60
10510;BME280;5303;53.266;10.410;2023-06-26T05:37:57;100921.22;;;32.12;34.82
10510;BME280;5303;53.266;10.410;2023-06-26T05:40:23;100912.19;;;32.59;33.96
10510;BME280;5303;53.266;10.410;2023-06-26T05:42:48;100910.38;;;32.41;33.47
10510;BME280;5303;53.266;10.410;2023-06-26T05:45:14;100910.72;;;31.67;34.36
10510;BME280;5303;53.266;10.410;2023-06-26T05:47:40;100906.91;;;30.12;37.84
10510;BME280;5303;53.266;10.410;2023-06-26T05:50:07;100906.78;;;29.02;40.34
10510;BME280;5303;53.266;10.410;2023-06-26T05:52:33;100908.88;;;27.29;44.50
10510;BME280;5303;53.266;10.410;2023-06-26T05:54:58;100902.66;;;26.36;48.06
10510;BME280;5303;53.266;10.410;2023-06-26T05:57:28;100901.09;;;25.78;49.05
10510;BME280;5303;53.266;10.410;2023-06-26T05:59:54;100897.34;;;25.38;51.20
10510;BME280;5303;53.266;10.410;2023-06-26T06:02:19;100898.59;;;25.04;52.31
10510;BME280;5303;53.266;10.410;2023-06-26T06:04:44;100896.22;;;24.84;52.32
10510;BME280;5303;53.266;10.410;2023-06-26T06:07:10;100898.31;;;24.34;56.10
10510;BME280;5303;53.266;10.410;2023-06-26T06:09:35;100895.69;;;24.33;55.04
10510;BME280;5303;53.266;10.410;2023-06-26T06:12:00;100899.53;;;24.13;56.59
10510;BME280;5303;53.266;10.410;2023-06-26T06:14:27;100905.41;;;24.20;56.29
10510;BME280;5303;53.266;10.410;2023-06-26T06:16:52;100895.53;;;24.04;56.73
10510;BME280;5303;53.266;10.410;2023-06-26T06:19:17;100893.28;;;24.12;56.51
10510;BME280;5303;53.266;10.410;2023-06-26T06:21:43;100886.50;;;24.05;57.35
10510;BME280;5303;53.266;10.410;2023-06-26T06:24:09;100884.56;;;24.07;58.00
10510;BME280;5303;53.266;10.410;2023-06-26T06:26:35;100887.06;;;24.10;57.60
10510;BME280;5303;53.266;10.410;2023-06-26T06:29:00;100874.41;;;24.12;57.45
10510;BME280;5303;53.266;10.410;2023-06-26T06:31:25;100877.72;;;24.02;58.11
10510;BME280;5303;53.266;10.410;2023-06-26T06:33:53;100879.69;;;24.14;57.36
10510;BME280;5303;53.266;10.410;2023-06-26T06:36:18;100877.91;;;24.29;57.27
10510;BME280;5303;53.266;10.410;2023-06-26T06:38:44;100876.81;;;24.33;57.50
10510;BME280;5303;53.266;10.410;2023-06-26T06:41:09;100869.94;;;24.43;56.95
10510;BME280;5303;53.266;10.410;2023-06-26T06:43:34;100870.63;;;24.31;57.83
10510;BME280;5303;53.266;10.410;2023-06-26T06:46:01;100872.78;;;24.40;57.52
10510;BME280;5303;53.266;10.410;2023-06-26T06:48:26;100872.22;;;24.35;57.50
10510;BME280;5303;53.266;10.410;2023-06-26T06:50:51;100864.97;;;24.35;57.81
10510;BME280;5303;53.266;10.410;2023-06-26T06:53:17;100862.50;;;24.47;57.80
10510;BME280;5303;53.266;10.410;2023-06-26T06:55:45;100859.63;;;24.50;57.58
10510;BME280;5303;53.266;10.410;2023-06-26T06:58:11;100858.00;;;24.61;57.81
10510;BME280;5303;53.266;10.410;2023-06-26T07:00:36;100840.47;;;24.54;58.30
10510;BME280;5303;53.266;10.410;2023-06-26T07:03:01;100835.03;;;24.40;58.44
10510;BME280;5303;53.266;10.410;2023-06-26T07:05:26;100837.47;;;24.59;57.30
10510;BME280;5303;53.266;10.410;2023-06-26T07:07:52;100829.69;;;24.54;57.97
10510;BME280;5303;53.266;10.410;2023-06-26T07:10:17;100835.00;;;24.70;56.58
10510;BME280;5303;53.266;10.410;2023-06-26T07:12:42;100823.94;;;24.75;56.30
10510;BME280;5303;53.266;10.410;2023-06-26T07:15:09;100832.19;;;24.71;56.71
10510;BME280;5303;53.266;10.410;2023-06-26T07:17:35;100826.63;;;24.75;56.10
10510;BME280;5303;53.266;10.410;2023-06-26T07:20:01;100828.84;;;24.82;56.25
10510;BME280;5303;53.266;10.410;2023-06-26T07:22:30;100827.03;;;24.97;56.44
10510;BME280;5303;53.266;10.410;2023-06-26T07:24:55;100828.56;;;25.01;56.63
10510;BME280;5303;53.266;10.410;2023-06-26T07:27:21;100828.22;;;25.07;55.63
10510;BME280;5303;53.266;10.410;2023-06-26T07:29:47;100822.59;;;25.10;55.11
10510;BME280;5303;53.266;10.410;2023-06-26T07:32:12;100827.56;;;25.04;56.49
10510;BME280;5303;53.266;10.410;2023-06-26T07:34:38;100823.94;;;25.03;57.00
10510;BME280;5303;53.266;10.410;2023-06-26T07:37:03;100818.81;;;24.98;57.09
10510;BME280;5303;53.266;10.410;2023-06-26T07:39:29;100815.28;;;25.26;53.81
10510;BME280;5303;53.266;10.410;2023-06-26T07:41:54;100821.63;;;25.40;53.90
10510;BME280;5303;53.266;10.410;2023-06-26T07:44:20;100821.19;;;25.60;52.07
10510;BME280;5303;53.266;10.410;2023-06-26T07:46:45;100818.00;;;25.68;52.70
10510;BME280;5303;53.266;10.410;2023-06-26T07:49:11;100812.06;;;25.90;51.74
10510;BME280;5303;53.266;10.410;2023-06-26T07:51:36;100801.03;;;25.93;52.05
10510;BME280;5303;53.266;10.410;2023-06-26T07:54:02;100806.78;;;26.01;52.97
10510;BME280;5303;53.266;10.410;2023-06-26T07:56:27;100815.38;;;26.07;51.95
10510;BME280;5303;53.266;10.410;2023-06-26T07:58:52;100812.69;;;26.33;51.69
10510;BME280;5303;53.266;10.410;2023-06-26T08:01:18;100813.94;;;26.41;51.16
10510;BME280;5303;53.266;10.410;2023-06-26T08:03:43;100818.38;;;26.42;50.99
10510;BME280;5303;53.266;10.410;2023-06-26T08:06:08;100820.09;;;26.44;51.31
10510;BME280;5303;53.266;10.410;2023-06-26T08:08:34;100814.41;;;26.61;49.54
10510;BME280;5303;53.266;10.410;2023-06-26T08:10:59;100805.31;;;26.62;49.68
10510;BME280;5303;53.266;10.410;2023-06-26T08:13:25;100809.84;;;26.49;51.49
10510;BME280;5303;53.266;10.410;2023-06-26T08:15:50;100809.63;;;26.52;49.94
10510;BME280;5303;53.266;10.410;2023-06-26T08:18:15;100802.28;;;26.79;49.65
10510;BME280;5303;53.266;10.410;2023-06-26T08:20:41;100806.28;;;26.99;49.37
10510;BME280;5303;53.266;10.410;2023-06-26T08:23:07;100801.53;;;27.03;48.87
10510;BME280;5303;53.266;10.410;2023-06-26T08:25:32;100797.41;;;26.84;50.06
10510;BME280;5303;53.266;10.410;2023-06-26T08:27:57;100791.47;;;26.79;50.17
10510;BME280;5303;53.266;10.410;2023-06-26T08:30:23;100784.72;;;26.97;50.04
10510;BME280;5303;53.266;10.410;2023-06-26T08:32:52;100783.84;;;26.97;49.81
10510;BME280;5303;53.266;10.410;2023-06-26T08:35:18;100776.34;;;27.26;48.42
10510;BME280;5303;53.266;10.410;2023-06-26T08:37:43;100778.41;;;27.22;48.78
10510;BME280;5303;53.266;10.410;2023-06-26T08:40:08;100770.09;;;27.00;50.33
10510;BME280;5303;53.266;10.410;2023-06-26T08:42:35;100759.81;;;27.05;49.20
10510;BME280;5303;53.266;10.410;2023-06-26T08:45:00;100772.50;;;27.05;49.68
10510;BME280;5303;53.266;10.410;2023-06-26T08:47:26;100758.16;;;27.15;48.60
10510;BME280;5303;53.266;10.410;2023-06-26T08:49:57;100766.34;;;27.39;47.26
10510;BME280;5303;53.266;10.410;2023-06-26T08:52:24;100762.25;;;27.58;46.17
10510;BME280;5303;53.266;10.410;2023-06-26T08:54:58;100766.81;;;27.70;45.96
10510;BME280;5303;53.266;10.410;2023-06-26T08:57:25;100770.59;;;27.91;44.95
10510;BME280;5303;53.266;10.410;2023-06-26T08:59:51;100770.09;;;27.97;44.21
10510;BME280;5303;53.266;10.410;2023-06-26T09:02:17;100775.97;;;27.80;44.79
10510;BME280;5303;53.266;10.410;2023-06-26T09:04:42;100770.75;;;27.77;45.80
10510;BME280;5303;53.266;10.410;2023-06-26T09:07:07;100770.44;;;27.81;46.19
10510;BME280;5303;53.266;10.410;2023-06-26T09:09:33;100771.75;;;27.76;45.79
10510;BME280;5303;53.266;10.410;2023-06-26T09:11:58;100776.94;;;27.79;45.94
10510;BME280;5303;53.266;10.410;2023-06-26T09:14:24;100780.34;;;27.94;47.20
10510;BME280;5303;53.266;10.410;2023-06-26T09:16:49;100773.38;;;28.13;45.65
10510;BME280;5303;53.266;10.410;2023-06-26T09:19:15;100784.97;;;28.16;46.11
10510;BME280;5303;53.266;10.410;2023-06-26T09:21:41;100786.25;;;28.23;44.69
10510;BME280;5303;53.266;10.410;2023-06-26T09:24:08;100782.97;;;28.06;46.10
10510;BME280;5303;53.266;10.410;2023-06-26T09:26:37;100779.22;;;27.96;47.25
10510;BME280;5303;53.266;10.410;2023-06-26T09:29:04;100779.22;;;27.96;46.62
10510;BME280;5303;53.266;10.410;2023-06-26T09:31:29;100783.91;;;27.94;46.59
10510;BME280;5303;53.266;10.410;2023-06-26T09:33:59;100780.09;;;27.97;46.33
10510;BME280;5303;53.266;10.410;2023-06-26T09:36:29;100786.22;;;27.88;47.00
10510;BME280;5303;53.266;10.410;2023-06-26T09:39:04;100794.19;;;28.02;44.52
10510;BME280;5303;53.266;10.410;2023-06-26T09:41:33;100792.22;;;28.04;45.44
10510;BME280;5303;53.266;10.410;2023-06-26T09:44:01;100791.06;;;27.95;45.06
10510;BME280;5303;53.266;10.410;2023-06-26T09:46:28;100797.84;;;27.90;46.51
10510;BME280;5303;53.266;10.410;2023-06-26T09:49:08;100790.72;;;27.76;46.48
10510;BME280;5303;53.266;10.410;2023-06-26T09:51:35;100807.09;;;27.98;45.84
10510;BME280;5303;53.266;10.410;2023-06-26T09:54:02;100809.88;;;28.33;44.00
10510;BME280;5303;53.266;10.410;2023-06-26T09:56:28;100800.44;;;28.26;44.83
10510;BME280;5303;53.266;10.410;2023-06-26T09:58:56;100810.13;;;28.42;44.88
10510;BME280;5303;53.266;10.410;2023-06-26T10:01:23;100809.03;;;28.44;44.65
10510;BME280;5303;53.266;10.410;2023-06-26T10:03:48;100806.06;;;28.47;46.22
10510;BME280;5303;53.266;10.410;2023-06-26T10:06:15;100800.13;;;28.31;46.34
10510;BME280;5303;53.266;10.410;2023-06-26T10:08:44;100807.88;;;28.35;46.37
10510;BME280;5303;53.266;10.410;2023-06-26T10:11:16;100810.22;;;28.40;45.31
10510;BME280;5303;53.266;10.410;2023-06-26T10:13:42;100819.13;;;28.31;46.46
10510;BME280;5303;53.266;10.410;2023-06-26T10:16:11;100815.03;;;28.01;45.94
10510;BME280;5303;53.266;10.410;2023-06-26T10:18:38;100821.06;;;27.81;46.44
10510;BME280;5303;53.266;10.410;2023-06-26T10:21:05;100823.59;;;27.71;46.54
10510;BME280;5303;53.266;10.410;2023-06-26T10:23:31;100837.28;;;27.70;47.15
10510;BME280;5303;53.266;10.410;2023-06-26T10:25:58;100853.34;;;27.47;47.45
10510;BME280;5303;53.266;10.410;2023-06-26T10:28:27;100843.94;;;27.40;47.62
10510;BME280;5303;53.266;10.410;2023-06-26T10:30:53;100836.34;;;27.45;47.47
10510;BME280;5303;53.266;10.410;2023-06-26T10:33:20;100841.94;;;27.55;47.66
10510;BME280;5303;53.266;10.410;2023-06-26T10:35:45;100856.94;;;27.35;48.29
10510;BME280;5303;53.266;10.410;2023-06-26T10:38:11;100866.91;;;26.96;49.63
10510;BME280;5303;53.266;10.410;2023-06-26T10:40:47;100860.69;;;26.44;50.81
10510;BME280;5303;53.266;10.410;2023-06-26T10:43:14;100858.38;;;25.98;52.59
10510;BME280;5303;53.266;10.410;2023-06-26T10:45:47;100884.50;;;25.70;53.98
10510;BME280;5303;53.266;10.410;2023-06-26T10:48:17;100900.25;;;24.77;58.56
10510;BME280;5303;53.266;10.410;2023-06-26T10:50:42;100907.59;;;22.48;100.00
10510;BME280;5303;53.266;10.410;2023-06-26T10:56:02;100926.63;;;20.70;100.00
10510;BME280;5303;53.266;10.410;2023-06-26T11:06:24;100970.75;;;19.26;100.00
10510;BME280;5303;53.266;10.410;2023-06-26T11:08:54;100993.19;;;19.22;100.00
10510;BME280;5303;53.266;10.410;2023-06-26T11:14:25;101000.38;;;19.20;100.00
10510;BME280;5303;53.266;10.410;2023-06-26T11:16:52;100999.56;;;19.18;100.00
10510;BME280;5303;53.266;10.410;2023-06-26T11:19:18;101011.94;;;19.20;100.00
10510;BME280;5303;53.266;10.410;2023-06-26T11:21:44;101005.56;;;19.24;100.00
10510;BME280;5303;53.266;10.410;2023-06-26T11:24:10;101002.72;;;19.29;100.00
10510;BME280;5303;53.266;10.410;2023-06-26T11:26:43;100999.03;;;19.33;100.00
10510;BME280;5303;53.266;10.410;2023-06-26T11:29:09;101004.03;;;19.42;100.00
10510;BME280;5303;53.266;10.410;2023-06-26T11:31:36;101029.47;;;19.54;100.00
10510;BME280;5303;53.266;10.410;2023-06-26T11:34:05;101026.31;;;19.68;100.00
10510;BME280;5303;53.266;10.410;2023-06-26T11:36:31;101033.78;;;19.83;100.00
10510;BME280;5303;53.266;10.410;2023-06-26T11:39:01;101049.91;;;20.05;100.00
10510;BME280;5303;53.266;10.410;2023-06-26T11:41:30;101038.28;;;20.28;100.00
10510;BME280;5303;53.266;10.410;2023-06-26T11:43:59;101034.16;;;20.41;100.00
10510;BME280;5303;53.266;10.410;2023-06-26T11:46:25;101032.88;;;20.51;100.00
10510;BME280;5303;53.266;10.410;2023-06-26T11:48:50;101044.97;;;20.61;100.00
10510;BME280;5303;53.266;10.410;2023-06-26T11:51:15;101045.03;;;20.82;100.00
10510;BME280;5303;53.266;10.410;2023-06-26T11:53:42;101040.47;;;20.84;100.00
10510;BME280;5303;53.266;10.410;2023-06-26T11:56:12;101048.03;;;20.96;100.00
10510;BME280;5303;53.266;10.410;2023-06-26T12:01:23;101042.69;;;21.16;99.73
10510;BME280;5303;53.266;10.410;2023-06-26T12:03:50;101052.19;;;21.23;97.37
10510;BME280;5303;53.266;10.410;2023-06-26T12:06:16;101049.28;;;21.30;95.73
10510;BME280;5303;53.266;10.410;2023-06-26T12:08:42;101056.25;;;21.34;94.70
10510;BME280;5303;53.266;10.410;2023-06-26T12:11:07;101051.63;;;21.37;92.21
10510;BME280;5303;53.266;10.410;2023-06-26T12:13:33;101055.72;;;21.46;89.99
10510;BME280;5303;53.266;10.410;2023-06-26T12:15:59;101056.47;;;21.49;87.72
10510;BME280;5303;53.266;10.410;2023-06-26T12:18:24;101057.00;;;21.58;85.78
10510;BME280;5303;53.266;10.410;2023-06-26T12:20:51;101054.75;;;21.67;84.90
10510;BME280;5303;53.266;10.410;2023-06-26T12:23:17;101053.19;;;21.82;85.03
10510;BME280;5303;53.266;10.410;2023-06-26T12:25:43;101054.72;;;21.88;83.32
10510;BME280;5303;53.266;10.410;2023-06-26T12:28:16;101053.13;;;22.02;83.18
10510;BME280;5303;53.266;10.410;2023-06-26T12:30:46;101042.22;;;22.07;81.86
10510;BME280;5303;53.266;10.410;2023-06-26T12:33:15;101049.19;;;22.11;81.02
10510;BME280;5303;53.266;10.410;2023-06-26T12:35:41;101060.06;;;22.08;80.39
10510;BME280;5303;53.266;10.410;2023-06-26T12:38:07;101055.19;;;22.16;80.38
10510;BME280;5303;53.266;10.410;2023-06-26T12:40:35;101064.72;;;22.23;78.30
10510;BME280;5303;53.266;10.410;2023-06-26T12:43:11;101057.53;;;22.24;74.68
10510;BME280;5303;53.266;10.410;2023-06-26T12:45:37;101064.88;;;22.39;75.26
10510;BME280;5303;53.266;10.410;2023-06-26T12:48:12;101062.69;;;22.28;71.73
10510;BME280;5303;53.266;10.410;2023-06-26T12:50:44;101074.28;;;22.48;72.08
10510;BME280;5303;53.266;10.410;2023-06-26T12:53:13;101080.84;;;22.42;68.88
10510;BME280;5303;53.266;10.410;2023-06-26T12:55:38;101088.97;;;22.22;66.19
10510;BME280;5303;53.266;10.410;2023-06-26T12:58:03;101089.06;;;22.20;65.28
10510;BME280;5303;53.266;10.410;2023-06-26T13:00:29;101098.50;;;22.29;65.44
10510;BME280;5303;53.266;10.410;2023-06-26T13:02:55;101099.88;;;22.37;63.60
10510;BME280;5303;53.266;10.410;2023-06-26T13:05:20;101097.84;;;22.42;63.65